createdAt,value
2018-09-01T00:01:26.178Z,69.39
2018-09-01T00:03:53.788Z,69.76
2018-09-01T00:06:22.328Z,69.27
2018-09-01T00:08:54.165Z,69.02
2018-09-01T00:11:21.748Z,69.77
2018-09-01T00:13:49.371Z,69.70
2018-09-01T00:16:16.880Z,69.78
2018-09-01T00:18:44.434Z,70.07
2018-09-01T00:21:11.994Z,70.84
2018-09-01T00:23:39.543Z,71.50
2018-09-01T00:26:07.088Z,71.42
2018-09-01T00:28:34.664Z,71.33
2018-09-01T00:31:02.200Z,71.41
2018-09-01T00:33:29.772Z,71.49
2018-09-01T00:35:57.307Z,71.25
2018-09-01T00:38:24.890Z,70.95
2018-09-01T00:40:52.523Z,70.99
2018-09-01T00:43:20.075Z,71.22
2018-09-01T00:45:47.683Z,71.10
2018-09-01T00:48:15.361Z,71.17
2018-09-01T00:50:42.940Z,71.14
2018-09-01T00:53:10.577Z,71.46
2018-09-01T00:55:38.193Z,71.77
2018-09-01T00:58:05.757Z,71.26
2018-09-01T01:00:33.285Z,71.92
2018-09-01T01:03:00.849Z,70.97
2018-09-01T01:05:28.469Z,70.79
2018-09-01T01:07:55.979Z,71.41
2018-09-01T01:10:23.576Z,71.67
2018-09-01T01:12:51.131Z,71.58
2018-09-01T01:15:18.657Z,71.78
2018-09-01T01:17:46.215Z,72.25
2018-09-01T01:20:13.741Z,71.59
2018-09-01T01:22:41.299Z,71.49
2018-09-01T01:25:08.807Z,71.69
2018-09-01T01:27:36.375Z,72.56
2018-09-01T01:30:03.914Z,72.25
2018-09-01T01:32:34.843Z,71.98
2018-09-01T01:35:02.453Z,71.94
2018-09-01T01:37:30.025Z,71.86
2018-09-01T01:39:57.654Z,71.51
2018-09-01T01:42:25.439Z,71.24
2018-09-01T01:44:52.969Z,71.62
2018-09-01T01:47:20.539Z,71.58
2018-09-01T01:49:48.084Z,72.21
2018-09-01T01:52:15.650Z,72.64
2018-09-01T01:54:43.213Z,72.10
2018-09-01T01:57:10.746Z,71.81
2018-09-01T01:59:38.456Z,71.63
2018-09-01T02:02:06.010Z,72.16
2018-09-01T02:04:33.585Z,72.16
2018-09-01T02:07:01.113Z,72.38
2018-09-01T02:09:28.691Z,72.42
2018-09-01T02:11:56.211Z,73.39
2018-09-01T02:14:23.803Z,72.81
2018-09-01T02:16:51.390Z,73.80
2018-09-01T02:19:18.980Z,73.21
2018-09-01T02:21:46.568Z,73.45
2018-09-01T02:24:14.109Z,72.45
2018-09-01T02:26:41.674Z,73.12
2018-09-01T02:29:09.267Z,73.00
2018-09-01T02:31:36.793Z,72.25
2018-09-01T02:34:04.327Z,72.14
2018-09-01T02:36:31.897Z,71.99
2018-09-01T02:39:06.611Z,72.13
2018-09-01T02:41:34.206Z,72.43
2018-09-01T02:44:01.800Z,72.21
2018-09-01T02:46:29.332Z,72.88
2018-09-01T02:49:00.817Z,72.10
2018-09-01T02:51:28.355Z,71.62
2018-09-01T02:53:55.901Z,70.93
2018-09-01T02:56:23.494Z,70.44
2018-09-01T02:58:51.269Z,70.72
2018-09-01T03:01:18.792Z,70.59
2018-09-01T03:03:50.177Z,70.28
2018-09-01T03:06:17.720Z,69.65
2018-09-01T03:08:45.367Z,70.21
2018-09-01T03:11:12.947Z,70.95
2018-09-01T03:13:40.524Z,70.25
2018-09-01T03:16:11.454Z,69.70
2018-09-01T03:18:38.963Z,69.39
2018-09-01T03:21:06.541Z,69.50
2018-09-01T03:23:34.078Z,70.67
2018-09-01T03:26:01.650Z,71.23
2018-09-01T03:28:29.171Z,71.62
2018-09-01T03:30:56.712Z,70.39
2018-09-01T03:33:24.254Z,70.08
2018-09-01T03:35:51.835Z,71.33
2018-09-01T03:38:19.400Z,70.85
2018-09-01T03:40:46.947Z,71.28
2018-09-01T03:43:26.865Z,70.83
2018-09-01T03:45:54.450Z,70.60
2018-09-01T03:48:22.025Z,70.38
2018-09-01T03:50:49.574Z,70.47
2018-09-01T03:53:17.177Z,70.85
2018-09-01T03:55:44.705Z,72.04
2018-09-01T03:58:12.280Z,71.60
2018-09-01T04:00:39.854Z,71.08
2018-09-01T04:03:07.384Z,71.81
2018-09-01T04:05:34.945Z,71.57
2018-09-01T04:08:02.461Z,71.11
2018-09-01T04:10:30.075Z,71.46
2018-09-01T04:12:57.647Z,71.27
2018-09-01T04:15:25.178Z,70.60
2018-09-01T04:17:52.770Z,70.19
2018-09-01T04:20:20.287Z,69.81
2018-09-01T04:22:47.812Z,70.92
2018-09-01T04:25:15.405Z,71.31
2018-09-01T04:27:42.919Z,71.56
2018-09-01T04:30:10.436Z,71.29
2018-09-01T04:32:37.992Z,70.44
2018-09-01T04:35:07.672Z,71.69
2018-09-01T04:37:35.197Z,71.81
2018-09-01T04:40:02.813Z,71.98
2018-09-01T04:42:30.375Z,71.15
2018-09-01T04:44:57.913Z,70.37
2018-09-01T04:47:25.442Z,70.15
2018-09-01T04:49:53.349Z,70.35
2018-09-01T04:52:20.900Z,69.66
2018-09-01T04:54:48.481Z,71.24
2018-09-01T04:57:16.025Z,70.42
2018-09-01T04:59:43.616Z,71.45
2018-09-01T05:02:11.145Z,71.84
2018-09-01T05:04:38.726Z,72.54
2018-09-01T05:07:06.254Z,72.97
2018-09-01T05:09:33.863Z,73.03
2018-09-01T05:12:01.408Z,72.63
2018-09-01T05:14:28.976Z,72.25
2018-09-01T05:16:56.510Z,72.47
2018-09-01T05:19:24.083Z,72.68
2018-09-01T05:21:51.633Z,72.32
2018-09-01T05:24:19.180Z,71.99
2018-09-01T05:26:46.768Z,71.86
2018-09-01T05:29:18.179Z,71.60
2018-09-01T05:31:45.766Z,71.46
2018-09-01T05:34:13.294Z,71.63
2018-09-01T05:36:40.950Z,71.86
2018-09-01T05:39:10.527Z,71.40
2018-09-01T05:41:38.121Z,71.27
2018-09-01T05:44:05.693Z,70.78
2018-09-01T05:46:33.242Z,71.05
2018-09-01T05:49:00.846Z,70.76
2018-09-01T05:51:28.401Z,70.70
2018-09-01T05:53:56.171Z,70.48
2018-09-01T05:56:23.752Z,70.88
2018-09-01T05:58:51.300Z,70.98
2018-09-01T06:01:18.875Z,71.44
2018-09-01T06:03:46.411Z,71.52
2018-09-01T06:06:14.047Z,71.38
2018-09-01T06:08:41.582Z,71.33
2018-09-01T06:11:09.129Z,71.77
2018-09-01T06:13:36.763Z,71.94
2018-09-01T06:16:04.341Z,72.16
2018-09-01T06:18:31.867Z,72.26
2018-09-01T06:20:59.442Z,72.36
2018-09-01T06:23:27.012Z,72.45
2018-09-01T06:25:54.714Z,72.41
2018-09-01T06:28:22.286Z,72.30
2018-09-01T06:30:50.882Z,72.21
2018-09-01T06:33:18.470Z,71.65
2018-09-01T06:35:46.099Z,71.72
2018-09-01T06:38:13.940Z,72.01
2018-09-01T06:40:42.007Z,71.62
2018-09-01T06:43:09.747Z,72.04
2018-09-01T06:45:37.195Z,71.91
2018-09-01T06:48:04.776Z,71.99
2018-09-01T06:50:32.547Z,71.48
2018-09-01T06:53:00.157Z,71.98
2018-09-01T06:55:27.882Z,72.62
2018-09-01T06:58:02.453Z,72.82
2018-09-01T07:00:30.586Z,71.46
2018-09-01T07:02:58.561Z,71.64
2018-09-01T07:05:27.674Z,70.94
2018-09-01T07:07:55.713Z,71.79
2018-09-01T07:10:23.577Z,70.89
2018-09-01T07:12:51.379Z,70.85
2018-09-01T07:15:19.077Z,70.89
2018-09-01T07:17:46.653Z,71.27
2018-09-01T07:20:14.186Z,70.66
2018-09-01T07:22:41.786Z,70.45
2018-09-01T07:25:09.327Z,70.56
2018-09-01T07:27:36.918Z,70.87
2018-09-01T07:30:04.498Z,71.20
2018-09-01T07:32:32.010Z,70.96
2018-09-01T07:34:59.589Z,71.05
2018-09-01T07:37:28.075Z,71.90
2018-09-01T07:39:55.662Z,71.42
2018-09-01T07:42:23.206Z,71.15
2018-09-01T07:44:50.908Z,70.06
2018-09-01T07:47:18.453Z,69.97
2018-09-01T07:49:46.017Z,69.92
2018-09-01T07:52:13.574Z,69.45
2018-09-01T07:54:43.209Z,69.96
2018-09-01T07:57:11.857Z,69.74
2018-09-01T07:59:41.468Z,69.50
2018-09-01T08:02:10.151Z,69.42
2018-09-01T08:04:37.862Z,69.85
2018-09-01T08:07:07.639Z,69.44
2018-09-01T08:09:35.645Z,68.72
2018-09-01T08:12:03.383Z,69.63
2018-09-01T08:14:31.199Z,68.30
2018-09-01T08:16:58.956Z,68.54
2018-09-01T08:19:26.523Z,69.48
2018-09-01T08:21:54.221Z,68.84
2018-09-01T08:24:22.952Z,68.51
2018-09-01T08:26:50.563Z,68.93
2018-09-01T08:29:18.527Z,68.65
2018-09-01T08:31:46.188Z,69.56
2018-09-01T08:34:13.764Z,68.76
2018-09-01T08:36:41.865Z,68.58
2018-09-01T08:39:09.530Z,68.48
2018-09-01T08:41:37.268Z,67.38
2018-09-01T08:44:05.036Z,65.92
2018-09-01T08:46:32.617Z,65.75
2018-09-01T08:49:00.390Z,65.77
2018-09-01T08:51:27.974Z,65.47
2018-09-01T08:53:55.630Z,64.62
2018-09-01T08:56:23.547Z,64.68
2018-09-01T08:58:51.141Z,63.95
2018-09-01T09:01:18.803Z,63.55
2018-09-01T09:03:46.580Z,63.75
2018-09-01T09:06:14.211Z,63.92
2018-09-01T09:08:41.892Z,62.86
2018-09-01T09:11:09.481Z,62.48
2018-09-01T09:13:37.110Z,62.14
2018-09-01T09:16:04.743Z,62.35
2018-09-01T09:18:32.488Z,61.57
2018-09-01T09:21:00.262Z,61.11
2018-09-01T09:23:29.865Z,62.27
2018-09-01T09:25:57.514Z,62.36
2018-09-01T09:28:25.080Z,63.09
2018-09-01T09:30:52.781Z,60.69
2018-09-01T09:33:20.401Z,61.42
2018-09-01T09:35:48.012Z,61.62
2018-09-01T09:38:15.597Z,61.37
2018-09-01T09:40:43.138Z,60.77
2018-09-01T09:43:12.869Z,59.60
2018-09-01T09:45:40.456Z,58.19
2018-09-01T09:48:07.994Z,60.12
2018-09-01T09:50:35.541Z,60.35
2018-09-01T09:53:05.252Z,56.98
2018-09-01T09:55:32.727Z,57.57
2018-09-01T09:58:00.271Z,57.25
2018-09-01T10:00:27.844Z,57.58
2018-09-01T10:02:55.355Z,57.25
2018-09-01T10:05:24.986Z,56.97
2018-09-01T10:07:52.509Z,57.78
2018-09-01T10:10:20.109Z,57.25
2018-09-01T10:12:47.634Z,57.44
2018-09-01T10:15:15.219Z,58.01
2018-09-01T10:17:42.819Z,57.98
2018-09-01T10:20:12.486Z,57.26
2018-09-01T10:22:40.009Z,57.08
2018-09-01T10:25:07.597Z,57.98
2018-09-01T10:27:40.665Z,58.06
2018-09-01T10:30:08.226Z,57.03
2018-09-01T10:32:35.902Z,56.36
2018-09-01T10:35:07.027Z,56.16
2018-09-01T10:37:34.579Z,54.88
2018-09-01T10:40:02.133Z,56.11
2018-09-01T10:42:35.257Z,55.08
2018-09-01T10:45:02.805Z,55.23
2018-09-01T10:47:30.494Z,56.88
2018-09-01T10:49:58.023Z,56.11
2018-09-01T10:52:25.573Z,56.62
2018-09-01T10:54:53.176Z,56.12
2018-09-01T10:57:20.773Z,55.13
2018-09-01T10:59:48.370Z,53.17
2018-09-01T11:02:15.921Z,51.96
2018-09-01T11:04:45.463Z,54.55
2018-09-01T11:07:12.990Z,53.50
2018-09-01T11:09:40.557Z,54.10
2018-09-01T11:12:08.094Z,53.72
2018-09-01T11:14:35.676Z,53.86
2018-09-01T11:17:03.271Z,53.98
2018-09-01T11:19:30.835Z,53.52
2018-09-01T11:21:58.418Z,52.01
2018-09-01T11:24:25.981Z,51.66
2018-09-01T11:26:53.514Z,52.13
2018-09-01T11:29:21.114Z,53.84
2018-09-01T11:31:48.650Z,53.43
2018-09-01T11:34:16.178Z,54.16
2018-09-01T11:36:45.796Z,54.48
2018-09-01T11:39:13.355Z,54.22
2018-09-01T11:41:40.897Z,55.21
2018-09-01T11:44:08.486Z,54.92
2018-09-01T11:46:36.068Z,53.73
2018-09-01T11:49:03.616Z,52.63
2018-09-01T11:51:31.199Z,52.04
2018-09-01T11:53:58.768Z,52.00
2018-09-01T11:56:26.344Z,53.79
2018-09-01T11:58:53.929Z,55.21
2018-09-01T12:01:21.614Z,54.93
2018-09-01T12:03:49.219Z,54.31
2018-09-01T12:06:16.738Z,54.34
2018-09-01T12:08:44.332Z,51.61
2018-09-01T12:11:11.864Z,53.60
2018-09-01T12:13:39.555Z,53.42
2018-09-01T12:16:07.129Z,48.30
2018-09-01T12:18:34.706Z,51.04
2018-09-01T12:21:04.387Z,52.11
2018-09-01T12:23:31.971Z,51.70
2018-09-01T12:25:59.565Z,51.53
2018-09-01T12:28:27.211Z,49.41
2018-09-01T12:30:54.805Z,52.79
2018-09-01T12:33:22.319Z,52.28
2018-09-01T12:35:49.899Z,52.21
2018-09-01T12:38:17.512Z,52.57
2018-09-01T12:40:45.064Z,51.85
2018-09-01T12:43:12.736Z,52.41
2018-09-01T12:45:40.265Z,51.82
2018-09-01T12:48:07.978Z,52.31
2018-09-01T12:50:36.616Z,49.87
2018-09-01T12:53:04.250Z,48.79
2018-09-01T12:55:31.851Z,50.42
2018-09-01T12:58:02.778Z,49.76
2018-09-01T13:00:30.388Z,50.95
2018-09-01T13:02:57.941Z,50.18
2018-09-01T13:05:28.786Z,51.48
2018-09-01T13:07:56.500Z,51.06
2018-09-01T13:10:24.262Z,51.58
2018-09-01T13:12:51.942Z,51.99
2018-09-01T13:15:19.495Z,49.79
2018-09-01T13:17:47.087Z,51.64
2018-09-01T13:20:14.623Z,51.60
2018-09-01T13:22:42.255Z,51.58
2018-09-01T13:25:09.888Z,50.32
2018-09-01T13:27:42.652Z,49.86
2018-09-01T13:30:10.431Z,48.05
2018-09-01T13:32:39.088Z,46.86
2018-09-01T13:35:06.654Z,49.40
2018-09-01T13:37:34.184Z,51.17
2018-09-01T13:40:01.953Z,51.87
2018-09-01T13:42:29.519Z,51.06
2018-09-01T13:44:58.241Z,51.05
2018-09-01T13:47:25.784Z,51.29
2018-09-01T13:49:53.523Z,50.57
2018-09-01T13:52:21.093Z,51.16
2018-09-01T13:54:48.675Z,51.18
2018-09-01T13:57:16.305Z,50.31
2018-09-01T13:59:43.841Z,50.85
2018-09-01T14:02:11.403Z,51.10
2018-09-01T14:04:38.946Z,49.59
2018-09-01T14:07:06.702Z,48.48
2018-09-01T14:09:42.948Z,50.48
2018-09-01T14:12:14.149Z,50.46
2018-09-01T14:14:41.879Z,50.51
2018-09-01T14:17:09.322Z,50.52
2018-09-01T14:19:36.871Z,51.36
2018-09-01T14:22:04.428Z,51.85
2018-09-01T14:24:37.257Z,51.23
2018-09-01T14:27:04.768Z,51.79
2018-09-01T14:29:34.331Z,51.80
2018-09-01T14:32:01.876Z,51.88
2018-09-01T14:34:31.398Z,51.60
2018-09-01T14:36:58.986Z,50.96
2018-09-01T14:39:26.554Z,51.26
2018-09-01T14:41:54.108Z,51.26
2018-09-01T14:44:21.676Z,49.07
2018-09-01T14:46:49.358Z,48.06
2018-09-01T14:49:16.895Z,48.16
2018-09-01T14:51:44.439Z,50.17
2018-09-01T14:54:12.027Z,51.18
2018-09-01T14:56:39.582Z,50.73
2018-09-01T14:59:07.233Z,50.82
2018-09-01T15:01:34.741Z,51.21
2018-09-01T15:04:02.328Z,51.02
2018-09-01T15:06:29.908Z,51.15
2018-09-01T15:08:57.489Z,51.09
2018-09-01T15:11:25.007Z,50.95
2018-09-01T15:13:52.538Z,50.71
2018-09-01T15:16:24.053Z,50.60
2018-09-01T15:18:51.635Z,50.95
2018-09-01T15:21:19.178Z,50.87
2018-09-01T15:23:46.737Z,50.97
2018-09-01T15:26:14.330Z,50.66
2018-09-01T15:28:41.925Z,50.90
2018-09-01T15:31:09.417Z,50.83
2018-09-01T15:33:37.047Z,50.79
2018-09-01T15:36:04.680Z,49.29
2018-09-01T15:38:32.237Z,49.30
2018-09-01T15:40:59.806Z,48.15
2018-09-01T15:43:27.356Z,48.49
2018-09-01T15:45:56.980Z,48.28
2018-09-01T15:48:24.548Z,48.78
2018-09-01T15:50:52.124Z,48.14
2018-09-01T15:53:19.661Z,47.88
2018-09-01T15:55:47.190Z,47.13
2018-09-01T15:58:14.758Z,47.92
2018-09-01T16:00:42.330Z,47.93
2018-09-01T16:03:09.908Z,49.78
2018-09-01T16:05:37.489Z,49.48
2018-09-01T16:08:05.032Z,50.52
2018-09-01T16:10:37.356Z,50.94
2018-09-01T16:13:04.911Z,50.92
2018-09-01T16:15:34.443Z,50.91
2018-09-01T16:18:01.993Z,51.18
2018-09-01T16:20:29.615Z,51.38
2018-09-01T16:22:57.196Z,50.93
2018-09-01T16:25:24.777Z,50.55
2018-09-01T16:27:52.320Z,50.97
2018-09-01T16:30:35.022Z,49.66
2018-09-01T16:33:02.562Z,50.11
2018-09-01T16:35:34.683Z,50.35
2018-09-01T16:38:05.853Z,50.18
2018-09-01T16:40:33.408Z,49.60
2018-09-01T16:43:00.986Z,50.80
2018-09-01T16:45:34.566Z,50.29
2018-09-01T16:48:02.162Z,50.32
2018-09-01T16:50:29.735Z,49.30
2018-09-01T16:52:58.195Z,49.41
2018-09-01T16:55:25.753Z,49.89
2018-09-01T16:57:53.323Z,49.93
2018-09-01T17:00:20.886Z,49.93
2018-09-01T17:02:48.488Z,49.74
2018-09-01T17:05:17.183Z,49.01
2018-09-01T17:07:44.991Z,50.23
2018-09-01T17:10:12.628Z,50.10
2018-09-01T17:12:40.528Z,49.94
2018-09-01T17:15:09.632Z,50.03
2018-09-01T17:17:37.554Z,50.47
2018-09-01T17:20:05.142Z,50.86
2018-09-01T17:22:37.359Z,51.33
2018-09-01T17:25:04.880Z,51.20
2018-09-01T17:27:32.467Z,51.26
2018-09-01T17:30:00.035Z,50.26
2018-09-01T17:32:27.768Z,51.54
2018-09-01T17:34:55.308Z,51.62
2018-09-01T17:37:22.911Z,51.42
2018-09-01T17:39:50.457Z,51.62
2018-09-01T17:42:17.998Z,51.71
2018-09-01T17:44:49.068Z,51.80
2018-09-01T17:47:16.595Z,52.58
2018-09-01T17:49:51.953Z,52.24
2018-09-01T17:52:19.576Z,52.74
2018-09-01T17:54:47.134Z,52.66
2018-09-01T17:57:14.719Z,52.35
2018-09-01T17:59:42.295Z,53.01
2018-09-01T18:02:09.866Z,52.76
2018-09-01T18:04:37.455Z,53.08
2018-09-01T18:07:05.035Z,53.55
2018-09-01T18:09:32.554Z,53.95
2018-09-01T18:12:02.161Z,53.72
2018-09-01T18:14:29.667Z,53.40
2018-09-01T18:16:57.204Z,53.65
2018-09-01T18:19:24.826Z,53.59
2018-09-01T18:21:52.360Z,53.53
2018-09-01T18:24:19.918Z,53.90
2018-09-01T18:26:47.474Z,53.59
2018-09-01T18:29:15.028Z,53.84
2018-09-01T18:31:42.558Z,53.71
2018-09-01T18:34:10.233Z,53.73
2018-09-01T18:36:37.799Z,53.88
2018-09-01T18:39:05.354Z,54.30
2018-09-01T18:41:32.910Z,55.13
2018-09-01T18:44:00.451Z,55.23
2018-09-01T18:46:28.027Z,54.95
2018-09-01T18:48:55.612Z,56.08
2018-09-01T18:51:23.126Z,55.38
2018-09-01T18:53:52.802Z,55.61
2018-09-01T18:56:20.353Z,55.34
2018-09-01T18:58:48.238Z,55.69
2018-09-01T19:01:16.318Z,56.99
2018-09-01T19:03:44.579Z,56.31
2018-09-01T19:06:12.838Z,56.10
2018-09-01T19:08:40.953Z,56.08
2018-09-01T19:11:08.570Z,56.21
2018-09-01T19:13:36.335Z,56.47
2018-09-01T19:16:03.917Z,55.97
2018-09-01T19:18:31.457Z,56.93
2018-09-01T19:20:59.054Z,57.04
2018-09-01T19:23:26.638Z,57.05
2018-09-01T19:25:54.164Z,57.43
2018-09-01T19:28:22.336Z,57.49
2018-09-01T19:30:49.936Z,57.55
2018-09-01T19:33:18.448Z,57.76
2018-09-01T19:35:48.009Z,57.67
2018-09-01T19:38:15.623Z,58.07
2018-09-01T19:40:43.205Z,58.62
2018-09-01T19:43:10.740Z,58.37
2018-09-01T19:45:40.449Z,58.82
2018-09-01T19:48:07.915Z,58.70
2018-09-01T19:50:35.489Z,59.33
2018-09-01T19:53:03.063Z,58.92
2018-09-01T19:55:30.594Z,59.06
2018-09-01T19:57:58.175Z,58.96
2018-09-01T20:00:29.994Z,59.18
2018-09-01T20:02:57.563Z,58.94
2018-09-01T20:05:25.243Z,58.97
2018-09-01T20:07:52.715Z,59.23
2018-09-01T20:10:20.267Z,59.24
2018-09-01T20:12:47.862Z,59.86
2018-09-01T20:15:15.476Z,59.36
2018-09-01T20:17:43.174Z,59.69
2018-09-01T20:20:10.765Z,60.54
2018-09-01T20:22:38.301Z,60.22
2018-09-01T20:25:10.761Z,60.73
2018-09-01T20:27:38.316Z,61.40
2018-09-01T20:30:05.867Z,61.30
2018-09-01T20:32:33.385Z,61.44
2018-09-01T20:35:00.951Z,61.76
2018-09-01T20:37:28.507Z,61.57
2018-09-01T20:39:56.097Z,61.77
2018-09-01T20:42:23.626Z,61.75
2018-09-01T20:44:51.288Z,62.02
2018-09-01T20:47:18.895Z,61.92
2018-09-01T20:49:46.429Z,61.81
2018-09-01T20:52:13.963Z,61.75
2018-09-01T20:54:41.545Z,61.49
2018-09-01T20:57:09.114Z,61.52
2018-09-01T20:59:36.628Z,62.01
2018-09-01T21:02:04.185Z,61.60
2018-09-01T21:04:31.726Z,61.19
2018-09-01T21:06:59.307Z,61.39
2018-09-01T21:09:26.830Z,61.04
2018-09-01T21:11:54.416Z,61.63
2018-09-01T21:14:23.855Z,62.53
2018-09-01T21:16:51.432Z,62.34
2018-09-01T21:19:18.939Z,63.10
2018-09-01T21:21:47.463Z,63.21
2018-09-01T21:24:15.062Z,62.81
2018-09-01T21:26:42.616Z,63.71
2018-09-01T21:29:10.195Z,63.07
2018-09-01T21:31:37.765Z,63.19
2018-09-01T21:34:06.409Z,63.70
2018-09-01T21:36:33.985Z,63.69
2018-09-01T21:39:01.546Z,63.99
2018-09-01T21:41:30.249Z,63.68
2018-09-01T21:43:58.033Z,63.72
2018-09-01T21:46:31.884Z,63.49
2018-09-01T21:48:59.471Z,63.24
2018-09-01T21:51:26.997Z,62.91
2018-09-01T21:53:54.586Z,62.96
2018-09-01T21:56:22.119Z,62.99
2018-09-01T21:58:49.700Z,63.16
2018-09-01T22:01:17.264Z,63.20
2018-09-01T22:03:47.972Z,62.66
2018-09-01T22:06:15.622Z,62.32
2018-09-01T22:08:47.687Z,61.98
2018-09-01T22:11:15.238Z,61.79
2018-09-01T22:13:42.878Z,61.88
2018-09-01T22:16:10.395Z,61.83
2018-09-01T22:18:37.934Z,62.13
2018-09-01T22:21:05.567Z,62.48
2018-09-01T22:23:35.175Z,62.17
2018-09-01T22:26:02.726Z,62.46
2018-09-01T22:28:30.291Z,62.76
2018-09-01T22:30:57.834Z,62.86
2018-09-01T22:33:25.456Z,63.37
2018-09-01T22:35:53.018Z,63.69
2018-09-01T22:38:20.605Z,63.35
2018-09-01T22:40:48.251Z,63.68
2018-09-01T22:43:15.820Z,63.46
2018-09-01T22:45:43.420Z,64.18
2018-09-01T22:48:11.089Z,63.96
2018-09-01T22:50:38.875Z,63.91
2018-09-01T22:53:06.559Z,63.97
2018-09-01T22:55:34.149Z,64.36
2018-09-01T22:58:01.796Z,64.32
2018-09-01T23:00:35.065Z,64.77
2018-09-01T23:03:02.644Z,64.84
2018-09-01T23:05:30.228Z,64.94
2018-09-01T23:08:02.082Z,65.07
2018-09-01T23:10:29.644Z,65.50
2018-09-01T23:12:57.224Z,65.65
2018-09-01T23:15:24.763Z,65.27
2018-09-01T23:17:52.346Z,65.54
2018-09-01T23:20:19.898Z,65.89
2018-09-01T23:22:47.425Z,65.84
2018-09-01T23:25:15.017Z,65.63
2018-09-01T23:27:42.583Z,65.58
2018-09-01T23:30:10.142Z,66.03
2018-09-01T23:32:37.712Z,65.96
2018-09-01T23:35:15.554Z,65.93
2018-09-01T23:37:43.141Z,67.22
2018-09-01T23:40:10.673Z,66.60
2018-09-01T23:42:38.354Z,66.71
2018-09-01T23:45:05.933Z,66.31
2018-09-01T23:47:33.515Z,66.76
2018-09-01T23:50:01.151Z,66.06
2018-09-01T23:52:28.673Z,66.16
2018-09-01T23:54:56.245Z,66.38
2018-09-01T23:57:23.788Z,66.79
2018-09-01T23:59:51.433Z,66.47
